Air Navigation Services of Czech Republic
Airport: LKKB Updated:  13.11.2018 19:01:06  UTC
 METAR LKKB 13.11. 19:00 ...
METAR LKKB 131900Z 24012KT CAVOK 10/06 Q1028 NOSIG RMK BLU BLU=
 TAF LKKB 13.11. 17:00 ...
TAF LKKB 131700Z 1318/1418 26010KT CAVOK      TEMPO 1318/1400 25016KT      BECMG 1401/1403 24006KT      TEMPO 1410/1415 SCT025      BECMG 1416/1418 VRB01KT=